createdAt,value
2023-05-12T00:00:03.930Z,102275.56
2023-05-12T00:01:33.291Z,102277.02
2023-05-12T00:02:34.738Z,102277.48
2023-05-12T00:03:36.289Z,102273.66
2023-05-12T00:04:39.782Z,102276.33
2023-05-12T00:05:41.207Z,102279.83
2023-05-12T00:06:42.763Z,102277.20
2023-05-12T00:07:44.128Z,102277.98
2023-05-12T00:08:45.506Z,102278.11
2023-05-12T00:09:46.815Z,102278.98
2023-05-12T00:10:48.224Z,102280.60
2023-05-12T00:11:50.040Z,102277.88
2023-05-12T00:12:51.461Z,102282.83
2023-05-12T00:13:54.793Z,102282.86
2023-05-12T00:14:56.253Z,102282.76
2023-05-12T00:15:58.439Z,102283.86
2023-05-12T00:17:00.471Z,102282.36
2023-05-12T00:18:01.915Z,102284.13
2023-05-12T00:19:03.463Z,102283.81
2023-05-12T00:20:05.888Z,102283.76
2023-05-12T00:21:08.020Z,102286.04
2023-05-12T00:22:10.842Z,102284.83
2023-05-12T00:23:12.328Z,102284.38
2023-05-12T00:24:13.940Z,102283.48
2023-05-12T00:25:15.511Z,102289.01
2023-05-12T00:26:16.958Z,102283.12
2023-05-12T00:27:20.027Z,102284.73
2023-05-12T00:28:21.398Z,102288.64
2023-05-12T00:29:22.785Z,102285.34
2023-05-12T00:30:24.291Z,102286.28
2023-05-12T00:31:26.132Z,102289.41
2023-05-12T00:32:29.000Z,102291.98
2023-05-12T00:33:30.741Z,102289.93
2023-05-12T00:34:32.160Z,102291.84
2023-05-12T00:35:33.750Z,102290.91
2023-05-12T00:36:35.374Z,102290.66
2023-05-12T00:37:37.250Z,102295.75
2023-05-12T00:38:38.703Z,102292.90
2023-05-12T00:39:40.208Z,102295.81
2023-05-12T00:40:41.631Z,102294.48
2023-05-12T00:41:43.888Z,102296.70
2023-05-12T00:42:45.505Z,102296.08
2023-05-12T00:43:46.876Z,102299.59
2023-05-12T00:44:48.329Z,102302.37
2023-05-12T00:45:50.357Z,102299.65
2023-05-12T00:46:52.126Z,102300.63
2023-05-12T00:47:54.131Z,102303.71
2023-05-12T00:48:55.580Z,102299.45
2023-05-12T00:49:57.755Z,102299.59
2023-05-12T00:51:00.108Z,102302.48
2023-05-12T00:52:02.500Z,102300.16
2023-05-12T00:53:05.788Z,102304.54
2023-05-12T00:54:07.847Z,102304.90
2023-05-12T00:55:09.316Z,102305.87
2023-05-12T00:56:12.809Z,102306.08
2023-05-12T00:57:14.261Z,102306.59
2023-05-12T00:58:15.754Z,102309.54
2023-05-12T00:59:17.347Z,102309.70
2023-05-12T01:00:19.197Z,102308.41
2023-05-12T01:01:22.409Z,102312.96
2023-05-12T01:02:27.003Z,102311.96
2023-05-12T01:03:31.361Z,102312.90
2023-05-12T01:04:35.397Z,102311.50
2023-05-12T01:05:58.250Z,102312.27
2023-05-12T01:07:05.185Z,102314.14
2023-05-12T01:08:08.747Z,102314.83
2023-05-12T01:09:10.817Z,102313.12
2023-05-12T01:10:21.740Z,102316.20
2023-05-12T01:11:24.031Z,102316.27
2023-05-12T01:12:27.315Z,102317.06
2023-05-12T01:13:28.870Z,102321.15
2023-05-12T01:14:30.817Z,102321.28
2023-05-12T01:15:32.928Z,102323.23
2023-05-12T01:16:50.788Z,102320.92
2023-05-12T01:17:58.185Z,102320.11
2023-05-12T01:19:04.661Z,102323.87
2023-05-12T01:20:08.294Z,102323.00
2023-05-12T01:21:10.651Z,102322.33
2023-05-12T01:22:12.568Z,102321.45
2023-05-12T01:23:17.811Z,102322.06
2023-05-12T01:24:23.483Z,102322.42
2023-05-12T01:25:28.130Z,102322.13
2023-05-12T01:26:31.720Z,102325.39
2023-05-12T01:27:34.095Z,102323.92
2023-05-12T01:28:37.070Z,102320.80
2023-05-12T01:29:39.731Z,102326.02
2023-05-12T01:32:42.010Z,102325.31
2023-05-12T01:33:43.739Z,102327.60
2023-05-12T01:34:46.133Z,102331.24
2023-05-12T01:35:47.489Z,102333.95
2023-05-12T01:36:49.268Z,102331.43
2023-05-12T01:37:51.391Z,102333.67
2023-05-12T01:38:52.855Z,102333.38
2023-05-12T01:39:54.659Z,102329.61
2023-05-12T01:40:56.541Z,102333.09
2023-05-12T01:41:58.036Z,102334.36
2023-05-12T01:42:59.748Z,102333.69
2023-05-12T01:44:05.092Z,102335.83
2023-05-12T01:45:07.752Z,102337.88
2023-05-12T01:46:10.246Z,102333.86
2023-05-12T01:47:15.103Z,102334.86
2023-05-12T01:48:20.459Z,102335.77
2023-05-12T01:49:22.531Z,102337.91
2023-05-12T01:50:24.359Z,102340.08
2023-05-12T01:51:26.001Z,102338.56
2023-05-12T01:52:28.244Z,102337.93
2023-05-12T01:53:29.622Z,102337.84
2023-05-12T01:54:31.122Z,102337.98
2023-05-12T01:55:33.811Z,102336.24
2023-05-12T01:56:35.787Z,102339.03
2023-05-12T01:57:37.778Z,102341.85
2023-05-12T01:58:39.761Z,102339.73
2023-05-12T01:59:42.003Z,102342.95
2023-05-12T02:00:43.384Z,102340.36
2023-05-12T02:01:47.167Z,102341.53
2023-05-12T02:02:51.247Z,102343.70
2023-05-12T02:03:52.778Z,102344.33
2023-05-12T02:04:56.510Z,102350.08
2023-05-12T02:05:57.956Z,102348.45
2023-05-12T02:07:01.115Z,102349.26
2023-05-12T02:08:03.590Z,102350.70
2023-05-12T02:09:05.104Z,102349.55
2023-05-12T02:10:07.316Z,102349.27
2023-05-12T02:11:09.091Z,102348.14
2023-05-12T02:12:10.640Z,102347.08
2023-05-12T02:13:12.449Z,102349.08
2023-05-12T02:14:14.134Z,102348.51
2023-05-12T02:15:15.596Z,102347.65
2023-05-12T02:16:19.356Z,102349.95
2023-05-12T02:17:20.823Z,102349.95
2023-05-12T02:18:23.868Z,102349.54
2023-05-12T02:19:25.941Z,102350.14
2023-05-12T02:20:28.997Z,102348.53
2023-05-12T02:21:30.621Z,102351.09
2023-05-12T02:22:32.111Z,102350.59
2023-05-12T02:23:33.711Z,102351.80
2023-05-12T02:24:35.167Z,102350.98
2023-05-12T02:25:37.224Z,102350.24
2023-05-12T02:26:38.707Z,102350.25
2023-05-12T02:27:40.749Z,102351.92
2023-05-12T02:28:42.884Z,102351.65
2023-05-12T02:29:44.449Z,102351.27
2023-05-12T02:30:49.850Z,102351.09
2023-05-12T02:31:51.397Z,102351.71
2023-05-12T02:32:54.385Z,102353.38
2023-05-12T02:33:56.407Z,102352.88
2023-05-12T02:34:58.132Z,102353.94
2023-05-12T02:36:00.592Z,102354.05
2023-05-12T02:37:02.397Z,102354.30
2023-05-12T02:38:04.344Z,102359.34
2023-05-12T02:39:07.304Z,102357.91
2023-05-12T02:40:09.160Z,102358.10
2023-05-12T02:41:10.758Z,102356.85
2023-05-12T02:42:12.152Z,102358.33
2023-05-12T02:43:13.580Z,102359.83
2023-05-12T02:44:16.558Z,102356.05
2023-05-12T02:45:18.605Z,102358.27
2023-05-12T02:46:20.236Z,102357.58
2023-05-12T02:47:21.846Z,102356.05
2023-05-12T02:48:23.267Z,102358.77
2023-05-12T02:49:24.718Z,102361.30
2023-05-12T02:50:26.509Z,102364.11
2023-05-12T02:51:28.513Z,102363.27
2023-05-12T02:52:30.300Z,102363.30
2023-05-12T02:53:31.726Z,102362.80
2023-05-12T02:54:33.145Z,102360.56
2023-05-12T02:55:34.779Z,102360.09
2023-05-12T02:56:36.999Z,102358.15
2023-05-12T02:57:38.553Z,102364.23
2023-05-12T02:58:40.308Z,102365.03
2023-05-12T02:59:41.680Z,102366.80
2023-05-12T03:00:43.091Z,102365.54
2023-05-12T03:01:44.729Z,102365.17
2023-05-12T03:02:46.223Z,102363.54
2023-05-12T03:03:47.725Z,102368.05
2023-05-12T03:04:49.452Z,102364.77
2023-05-12T03:05:52.240Z,102365.25
2023-05-12T03:06:53.889Z,102362.38
2023-05-12T03:07:55.453Z,102364.08
2023-05-12T03:08:57.005Z,102363.05
2023-05-12T03:09:58.578Z,102363.98
2023-05-12T03:11:00.010Z,102363.28
2023-05-12T03:12:02.311Z,102365.95
2023-05-12T03:13:04.049Z,102364.17
2023-05-12T03:14:05.721Z,102365.21
2023-05-12T03:15:08.300Z,102363.89
2023-05-12T03:16:10.462Z,102367.48
2023-05-12T03:17:12.160Z,102368.37
2023-05-12T03:18:13.722Z,102368.07
2023-05-12T03:19:15.111Z,102367.09
2023-05-12T03:20:16.602Z,102368.09
2023-05-12T03:21:18.016Z,102365.48
2023-05-12T03:22:19.709Z,102365.59
2023-05-12T03:23:21.112Z,102364.05
2023-05-12T03:24:22.582Z,102362.73
2023-05-12T03:25:24.039Z,102360.98
2023-05-12T03:26:26.011Z,102362.52
2023-05-12T03:27:30.443Z,102362.73
2023-05-12T03:28:31.877Z,102362.19
2023-05-12T03:29:36.041Z,102365.31
2023-05-12T03:30:37.838Z,102360.39
2023-05-12T03:31:39.795Z,102363.98
2023-05-12T03:32:41.610Z,102364.66
2023-05-12T03:33:44.684Z,102362.63
2023-05-12T03:34:46.123Z,102364.48
2023-05-12T03:35:47.561Z,102366.54
2023-05-12T03:36:49.366Z,102367.77
2023-05-12T03:37:50.979Z,102367.45
2023-05-12T03:38:52.366Z,102364.08
2023-05-12T03:39:55.571Z,102366.75
2023-05-12T03:41:04.588Z,102364.52
2023-05-12T03:42:08.453Z,102365.17
2023-05-12T03:43:10.019Z,102366.95
2023-05-12T03:44:12.068Z,102368.35
2023-05-12T03:45:13.539Z,102369.13
2023-05-12T03:46:15.004Z,102370.20
2023-05-12T03:47:17.166Z,102369.56
2023-05-12T03:48:19.681Z,102368.25
2023-05-12T03:49:21.209Z,102372.34
2023-05-12T03:50:22.780Z,102369.57
2023-05-12T03:51:24.880Z,102372.37
2023-05-12T03:52:26.395Z,102369.75
2023-05-12T03:53:27.925Z,102372.81
2023-05-12T03:54:30.509Z,102373.27
2023-05-12T03:55:32.352Z,102373.48
2023-05-12T03:56:33.962Z,102371.10
2023-05-12T03:57:36.032Z,102371.15
2023-05-12T03:58:38.124Z,102371.52
2023-05-12T03:59:40.632Z,102369.92
2023-05-12T04:00:42.117Z,102372.39
2023-05-12T04:01:43.818Z,102376.14
2023-05-12T04:02:45.835Z,102377.27
2023-05-12T04:03:49.841Z,102376.91
2023-05-12T04:04:51.486Z,102378.15
2023-05-12T04:06:03.857Z,102379.32
2023-05-12T04:07:07.123Z,102379.79
2023-05-12T04:08:10.891Z,102378.55
2023-05-12T04:09:12.825Z,102379.87
2023-05-12T04:10:14.990Z,102378.80
2023-05-12T04:11:17.049Z,102381.29
2023-05-12T04:12:20.768Z,102383.52
2023-05-12T04:13:22.406Z,102383.77
2023-05-12T04:14:39.092Z,102383.50
2023-05-12T04:15:41.837Z,102383.45
2023-05-12T04:16:48.526Z,102385.80
2023-05-12T04:17:51.385Z,102382.66
2023-05-12T04:18:59.174Z,102385.36
2023-05-12T04:20:02.592Z,102386.13
2023-05-12T04:21:06.524Z,102385.33
2023-05-12T04:22:08.338Z,102385.69
2023-05-12T04:23:14.514Z,102385.65
2023-05-12T04:24:17.897Z,102385.80
2023-05-12T04:25:22.460Z,102385.96
2023-05-12T04:26:26.291Z,102391.49
2023-05-12T04:27:32.473Z,102391.11
2023-05-12T04:28:53.371Z,102391.77
2023-05-12T04:29:56.187Z,102393.21
2023-05-12T04:31:04.236Z,102392.13
2023-05-12T04:32:08.361Z,102397.23
2023-05-12T04:33:13.870Z,102396.92
2023-05-12T04:34:31.444Z,102396.73
2023-05-12T04:35:34.478Z,102397.23
2023-05-12T04:36:41.375Z,102397.29
2023-05-12T04:37:48.496Z,102398.46
2023-05-12T04:38:55.664Z,102399.60
2023-05-12T04:40:07.008Z,102401.17
2023-05-12T04:41:13.318Z,102402.08
2023-05-12T04:42:29.379Z,102397.92
2023-05-12T04:44:52.093Z,102399.07
2023-05-12T04:46:09.371Z,102401.62
2023-05-12T04:47:28.852Z,102396.45
2023-05-12T04:48:54.904Z,102395.69
2023-05-12T04:51:19.359Z,102393.35
2023-05-12T04:52:24.899Z,102396.19
2023-05-12T04:57:16.962Z,102399.67
2023-05-12T05:02:18.063Z,102403.02
2023-05-12T05:05:56.870Z,102408.88
2023-05-12T05:08:16.041Z,102411.29
2023-05-12T05:26:09.667Z,102408.34
2023-05-12T05:35:11.813Z,102415.39
2023-05-12T06:03:43.461Z,102428.86
2023-05-12T06:04:45.836Z,102431.02
2023-05-12T06:05:47.703Z,102431.48
2023-05-12T06:06:49.109Z,102432.44
2023-05-12T06:07:50.598Z,102432.24
2023-05-12T06:08:55.239Z,102435.41
2023-05-12T06:09:56.637Z,102435.54
2023-05-12T06:10:58.534Z,102432.98
2023-05-12T06:12:00.060Z,102437.93
2023-05-12T06:13:01.496Z,102436.89
2023-05-12T06:14:03.018Z,102436.29
2023-05-12T06:15:04.922Z,102435.49
2023-05-12T06:16:06.383Z,102435.38
2023-05-12T06:17:08.548Z,102436.83
2023-05-12T06:18:10.058Z,102439.45
2023-05-12T06:19:11.994Z,102439.09
2023-05-12T06:20:15.092Z,102441.33
2023-05-12T06:21:16.535Z,102440.98
2023-05-12T06:22:17.870Z,102438.21
2023-05-12T06:23:20.230Z,102439.81
2023-05-12T06:24:21.700Z,102442.09
2023-05-12T06:25:23.133Z,102442.47
2023-05-12T06:26:24.866Z,102443.50
2023-05-12T06:27:26.243Z,102443.88
2023-05-12T06:28:27.684Z,102444.89
2023-05-12T06:29:29.306Z,102442.66
2023-05-12T06:30:30.888Z,102443.84
2023-05-12T06:31:32.457Z,102444.97
2023-05-12T06:32:34.004Z,102441.22
2023-05-12T06:33:35.523Z,102444.58
2023-05-12T06:34:36.923Z,102443.52
2023-05-12T06:35:38.490Z,102446.52
2023-05-12T06:36:40.280Z,102447.23
2023-05-12T06:37:44.113Z,102450.81
2023-05-12T06:38:49.421Z,102451.27
2023-05-12T06:39:51.285Z,102449.89
2023-05-12T06:40:52.732Z,102450.67
2023-05-12T06:41:54.081Z,102450.43
2023-05-12T06:42:55.916Z,102453.60
2023-05-12T06:44:01.777Z,102450.89
2023-05-12T06:45:03.859Z,102453.39
2023-05-12T06:46:07.811Z,102453.11
2023-05-12T06:47:09.765Z,102454.35
2023-05-12T06:48:11.484Z,102453.52
2023-05-12T06:49:13.025Z,102457.61
2023-05-12T06:50:16.338Z,102455.03
2023-05-12T06:51:17.788Z,102456.59
2023-05-12T06:52:20.255Z,102455.17
2023-05-12T06:53:23.372Z,102456.24
2023-05-12T06:54:28.076Z,102458.10
2023-05-12T06:55:29.487Z,102453.46
2023-05-12T06:56:31.483Z,102454.27
2023-05-12T06:57:32.851Z,102452.95
2023-05-12T06:58:34.382Z,102451.29
2023-05-12T06:59:35.876Z,102454.98
2023-05-12T07:00:37.428Z,102451.60
2023-05-12T07:01:38.908Z,102448.99
2023-05-12T07:02:40.546Z,102452.73
2023-05-12T07:03:42.191Z,102448.04
2023-05-12T07:04:44.078Z,102453.35
2023-05-12T07:05:45.843Z,102448.42
2023-05-12T07:06:47.501Z,102450.84
2023-05-12T07:07:48.947Z,102445.73
2023-05-12T07:08:50.343Z,102446.27
2023-05-12T07:09:51.830Z,102449.70
2023-05-12T07:10:53.253Z,102448.92
2023-05-12T07:11:54.642Z,102448.41
2023-05-12T07:12:56.135Z,102449.75
2023-05-12T07:13:57.520Z,102447.73
2023-05-12T07:14:59.011Z,102450.05
2023-05-12T07:16:00.644Z,102451.30
2023-05-12T07:17:02.351Z,102451.29
2023-05-12T07:36:21.859Z,102460.67
2023-05-12T07:37:23.659Z,102459.68
2023-05-12T07:38:25.229Z,102460.81
2023-05-12T07:39:26.648Z,102456.67
2023-05-12T07:40:28.138Z,102465.29
2023-05-12T07:41:29.614Z,102467.04
2023-05-12T07:42:31.120Z,102462.66
2023-05-12T07:43:32.617Z,102458.80
2023-05-12T07:44:34.012Z,102463.83
2023-05-12T07:45:36.070Z,102460.45
2023-05-12T07:46:37.792Z,102459.13
2023-05-12T07:47:39.452Z,102462.14
2023-05-12T07:48:40.939Z,102462.57
2023-05-12T07:49:42.302Z,102462.23
2023-05-12T07:50:43.782Z,102463.28
2023-05-12T07:51:45.156Z,102460.15
2023-05-12T07:52:48.249Z,102461.69
2023-05-12T07:53:49.844Z,102462.48
2023-05-12T07:54:51.287Z,102462.69
2023-05-12T07:55:52.905Z,102467.06
2023-05-12T07:56:54.342Z,102465.69
2023-05-12T07:57:55.796Z,102464.61
2023-05-12T07:58:57.304Z,102464.91
2023-05-12T07:59:59.583Z,102460.74
2023-05-12T08:01:05.274Z,102463.06
2023-05-12T08:02:07.364Z,102466.87
2023-05-12T08:03:09.121Z,102461.91
2023-05-12T08:04:11.018Z,102459.16
2023-05-12T08:05:12.782Z,102460.17
2023-05-12T08:06:14.549Z,102460.51
2023-05-12T08:07:15.976Z,102461.19
2023-05-12T08:08:17.461Z,102461.86
2023-05-12T08:09:18.854Z,102459.17
2023-05-12T08:10:20.260Z,102461.29
2023-05-12T08:11:21.796Z,102460.79
2023-05-12T08:12:23.430Z,102463.98
2023-05-12T08:13:25.867Z,102463.45
2023-05-12T08:14:27.319Z,102461.33
2023-05-12T08:15:28.720Z,102464.33
2023-05-12T08:16:30.297Z,102466.33
2023-05-12T08:17:32.006Z,102463.54
2023-05-12T08:18:33.495Z,102465.53
2023-05-12T08:19:34.904Z,102463.98
2023-05-12T08:20:36.826Z,102463.34
2023-05-12T08:21:38.581Z,102467.24
2023-05-12T08:22:40.279Z,102466.20
2023-05-12T08:23:41.967Z,102464.15
2023-05-12T08:24:44.981Z,102468.92
2023-05-12T08:25:47.868Z,102464.24
2023-05-12T08:26:49.544Z,102469.92
2023-05-12T08:27:50.898Z,102470.30
2023-05-12T08:28:52.305Z,102469.96
2023-05-12T08:29:53.657Z,102470.98
2023-05-12T08:30:55.267Z,102470.90
2023-05-12T08:31:57.643Z,102472.02
2023-05-12T08:32:59.136Z,102470.09
2023-05-12T08:34:09.598Z,102472.69
2023-05-12T08:35:12.102Z,102473.02
2023-05-12T08:36:13.643Z,102475.01
2023-05-12T08:37:15.568Z,102473.30
2023-05-12T08:38:16.974Z,102474.40
2023-05-12T08:39:19.057Z,102470.09
2023-05-12T08:40:22.663Z,102475.16
2023-05-12T08:41:41.432Z,102473.77
2023-05-12T08:42:48.243Z,102474.03
2023-05-12T08:43:51.275Z,102473.17
2023-05-12T08:44:53.549Z,102471.71
2023-05-12T08:45:58.668Z,102472.73
2023-05-12T08:47:01.542Z,102472.86
2023-05-12T08:48:07.937Z,102468.83
2023-05-12T08:49:15.045Z,102468.83
2023-05-12T08:50:20.107Z,102468.07
2023-05-12T08:51:23.586Z,102470.51
2023-05-12T08:52:26.529Z,102473.68
2023-05-12T08:53:29.084Z,102474.70
2023-05-12T08:54:33.365Z,102470.88
2023-05-12T08:55:35.500Z,102475.14
2023-05-12T08:57:45.003Z,102475.52
2023-05-12T08:58:47.644Z,102472.64
2023-05-12T08:59:52.274Z,102471.27
2023-05-12T09:00:54.010Z,102469.86
2023-05-12T09:01:56.145Z,102473.41
2023-05-12T09:03:00.473Z,102469.95
2023-05-12T09:04:03.714Z,102469.45
2023-05-12T09:05:05.363Z,102471.33
2023-05-12T09:06:08.733Z,102469.02
2023-05-12T09:07:10.831Z,102468.25
2023-05-12T09:08:13.086Z,102467.86
2023-05-12T09:09:16.285Z,102466.52
2023-05-12T09:11:25.711Z,102466.23
2023-05-12T09:12:32.275Z,102462.08
2023-05-12T09:13:54.239Z,102463.30
2023-05-12T09:15:03.954Z,102463.21
2023-05-12T09:16:10.743Z,102459.58
2023-05-12T09:17:13.536Z,102460.83
2023-05-12T09:18:14.966Z,102459.70
2023-05-12T09:19:20.729Z,102455.08
2023-05-12T09:21:33.488Z,102454.42
2023-05-12T09:22:35.217Z,102450.30
2023-05-12T09:23:36.628Z,102451.00
2023-05-12T09:24:41.208Z,102453.85
2023-05-12T09:25:46.439Z,102450.90
2023-05-12T09:26:49.058Z,102452.95
2023-05-12T09:27:55.931Z,102442.85
2023-05-12T09:29:07.519Z,102444.02
2023-05-12T09:30:09.189Z,102442.56
2023-05-12T09:31:24.304Z,102441.19
2023-05-12T09:32:33.422Z,102451.52
2023-05-12T09:33:36.094Z,102451.98
2023-05-12T09:34:40.256Z,102449.30
2023-05-12T09:35:43.673Z,102447.89
2023-05-12T09:36:57.845Z,102444.27
2023-05-12T09:38:08.094Z,102441.73
2023-05-12T09:39:09.744Z,102444.27
2023-05-12T09:40:15.254Z,102442.21
2023-05-12T09:41:21.937Z,102443.27
2023-05-12T09:42:27.589Z,102444.27
2023-05-12T09:43:29.771Z,102441.49
2023-05-12T09:44:31.698Z,102435.01
2023-05-12T09:45:37.964Z,102440.52
2023-05-12T09:46:40.122Z,102442.25
2023-05-12T09:47:41.774Z,102435.84
2023-05-12T09:48:47.060Z,102441.90
2023-05-12T09:49:51.764Z,102431.96
2023-05-12T09:50:53.165Z,102432.19
2023-05-12T09:51:58.749Z,102432.24
2023-05-12T09:53:01.063Z,102426.15
2023-05-12T09:54:04.579Z,102426.58
2023-05-12T09:55:10.178Z,102425.71
2023-05-12T09:56:16.156Z,102423.02
2023-05-12T09:57:20.528Z,102424.30
2023-05-12T09:58:24.121Z,102422.52
2023-05-12T09:59:30.860Z,102416.27
2023-05-12T10:00:43.428Z,102410.63
2023-05-12T10:01:58.506Z,102408.02
2023-05-12T10:03:00.871Z,102410.80
2023-05-12T10:04:06.989Z,102410.37
2023-05-12T10:05:17.652Z,102412.29
2023-05-12T10:06:29.636Z,102409.04
2023-05-12T10:07:32.464Z,102410.52
2023-05-12T10:08:43.018Z,102408.23
2023-05-12T10:09:47.661Z,102406.41
2023-05-12T10:10:51.978Z,102399.75
2023-05-12T10:11:54.199Z,102397.81
2023-05-12T10:12:56.067Z,102399.68
2023-05-12T10:13:58.742Z,102405.12
2023-05-12T10:15:02.082Z,102410.77
2023-05-12T10:16:04.707Z,102410.79
2023-05-12T10:17:07.459Z,102409.13
2023-05-12T10:18:10.041Z,102400.52
2023-05-12T10:19:13.189Z,102400.93
2023-05-12T10:20:16.053Z,102404.88
2023-05-12T10:21:18.020Z,102406.73
2023-05-12T10:22:20.999Z,102405.16
2023-05-12T10:23:22.741Z,102408.02
2023-05-12T10:24:28.697Z,102403.13
2023-05-12T10:25:30.406Z,102395.27
2023-05-12T10:26:32.865Z,102395.33
2023-05-12T10:27:35.175Z,102395.00
2023-05-12T10:28:37.343Z,102399.20
2023-05-12T10:29:39.589Z,102397.58
2023-05-12T10:30:42.375Z,102404.49
2023-05-12T10:31:44.646Z,102403.84
2023-05-12T10:32:46.673Z,102409.89
2023-05-12T10:34:02.504Z,102403.98
2023-05-12T10:35:12.433Z,102407.38
2023-05-12T10:36:19.915Z,102404.60
2023-05-12T10:37:24.427Z,102405.50
2023-05-12T10:38:26.375Z,102394.56
2023-05-12T10:39:32.147Z,102400.11
2023-05-12T10:40:33.801Z,102401.08
2023-05-12T10:41:35.710Z,102405.98
2023-05-12T10:42:39.157Z,102401.95
2023-05-12T10:43:43.186Z,102399.77
2023-05-12T10:44:52.227Z,102400.35
2023-05-12T10:46:12.104Z,102402.58
2023-05-12T10:47:16.602Z,102408.48
2023-05-12T10:48:17.980Z,102407.41
2023-05-12T10:49:19.474Z,102406.30
2023-05-12T10:50:27.731Z,102410.51
2023-05-12T10:51:44.408Z,102409.13
2023-05-12T10:52:58.613Z,102407.34
2023-05-12T10:54:07.008Z,102406.52
2023-05-12T10:55:15.397Z,102397.21
2023-05-12T10:56:26.297Z,102397.31
2023-05-12T10:57:28.169Z,102389.83
2023-05-12T10:58:30.147Z,102392.59
2023-05-12T10:59:32.260Z,102396.60
2023-05-12T11:00:43.962Z,102393.83
2023-05-12T11:02:15.886Z,102390.66
2023-05-12T11:03:25.581Z,102392.85
2023-05-12T11:04:55.131Z,102402.68
2023-05-12T11:06:03.004Z,102397.88
2023-05-12T11:07:07.902Z,102398.67
2023-05-12T11:08:10.048Z,102396.00
2023-05-12T11:09:13.155Z,102391.85
2023-05-12T11:10:15.518Z,102397.27
2023-05-12T11:11:20.557Z,102392.29
2023-05-12T11:12:22.762Z,102388.05
2023-05-12T11:13:24.526Z,102377.11
2023-05-12T11:14:26.770Z,102386.34
2023-05-12T11:15:29.095Z,102380.02
2023-05-12T11:16:30.654Z,102380.09
2023-05-12T11:17:32.668Z,102388.85
2023-05-12T11:18:34.218Z,102398.79
2023-05-12T11:19:36.887Z,102396.59
2023-05-12T11:20:38.518Z,102393.98
2023-05-12T11:21:40.463Z,102390.48
2023-05-12T11:22:42.802Z,102389.42
2023-05-12T11:23:50.056Z,102391.65
2023-05-12T11:24:52.070Z,102387.27
2023-05-12T11:25:53.932Z,102388.17
2023-05-12T11:26:56.679Z,102388.28
2023-05-12T11:27:58.417Z,102388.90
2023-05-12T11:29:06.063Z,102384.52
2023-05-12T11:30:08.504Z,102395.26
2023-05-12T11:31:18.209Z,102390.92
2023-05-12T11:32:19.742Z,102391.91
2023-05-12T11:33:22.227Z,102383.92
2023-05-12T11:34:25.084Z,102380.54
2023-05-12T11:35:30.136Z,102385.02
2023-05-12T11:36:38.930Z,102384.84
2023-05-12T11:37:41.905Z,102385.93
2023-05-12T11:38:49.683Z,102382.48
2023-05-12T11:39:52.268Z,102379.95
2023-05-12T11:40:53.843Z,102381.29
2023-05-12T11:42:12.048Z,102377.70
2023-05-12T11:43:19.988Z,102379.77
2023-05-12T11:44:23.418Z,102374.98
2023-05-12T11:45:28.004Z,102378.75
2023-05-12T11:46:30.403Z,102376.64
2023-05-12T11:47:32.034Z,102376.33
2023-05-12T11:48:34.243Z,102380.29
2023-05-12T11:49:48.746Z,102380.68
2023-05-12T11:50:50.619Z,102381.34
2023-05-12T11:51:53.953Z,102382.33
2023-05-12T11:52:57.117Z,102386.15
2023-05-12T11:53:58.999Z,102382.83
2023-05-12T11:55:00.618Z,102383.54
2023-05-12T11:56:02.022Z,102387.96
2023-05-12T11:57:03.943Z,102381.98
2023-05-12T11:58:05.337Z,102385.11
2023-05-12T11:59:06.832Z,102389.67
2023-05-12T12:00:09.074Z,102387.92
2023-05-12T12:01:11.998Z,102383.67
2023-05-12T12:02:20.837Z,102382.80
2023-05-12T12:03:24.036Z,102386.56
2023-05-12T12:04:35.492Z,102392.34
2023-05-12T12:05:37.513Z,102393.17
2023-05-12T12:06:43.771Z,102394.48
2023-05-12T12:07:45.150Z,102389.63
2023-05-12T12:08:59.223Z,102390.39
2023-05-12T12:10:13.605Z,102384.92
2023-05-12T12:11:17.546Z,102384.41
2023-05-12T12:12:18.924Z,102381.38
2023-05-12T12:13:22.077Z,102381.39
2023-05-12T12:14:24.308Z,102384.11
2023-05-12T12:15:25.998Z,102381.20
2023-05-12T12:16:29.010Z,102378.13
2023-05-12T12:17:30.960Z,102374.96
2023-05-12T12:18:32.710Z,102380.73
2023-05-12T12:19:34.104Z,102383.20
2023-05-12T12:20:35.899Z,102381.66
2023-05-12T12:21:37.239Z,102386.67
2023-05-12T12:22:38.586Z,102382.21
2023-05-12T12:23:50.480Z,102379.08
2023-05-12T12:24:53.099Z,102378.62
2023-05-12T12:25:54.526Z,102370.27
2023-05-12T12:26:56.054Z,102376.67
2023-05-12T12:27:57.416Z,102367.33
2023-05-12T12:28:58.776Z,102370.52
2023-05-12T12:30:00.199Z,102371.34
2023-05-12T12:31:02.243Z,102376.46
2023-05-12T12:32:03.929Z,102375.08
2023-05-12T12:33:05.470Z,102379.11
2023-05-12T12:34:06.893Z,102383.44
2023-05-12T12:35:08.450Z,102379.09
2023-05-12T12:36:10.209Z,102376.05
2023-05-12T12:37:11.792Z,102378.65
2023-05-12T12:38:13.943Z,102373.80
2023-05-12T12:39:17.186Z,102370.75
2023-05-12T12:40:20.230Z,102375.88
2023-05-12T12:41:22.057Z,102368.03
2023-05-12T12:42:23.890Z,102367.65
2023-05-12T12:43:26.589Z,102370.34
2023-05-12T12:44:28.508Z,102370.13
2023-05-12T12:45:30.011Z,102367.61
2023-05-12T12:46:32.175Z,102370.63
2023-05-12T12:47:34.239Z,102366.84
2023-05-12T12:48:35.569Z,102373.54
2023-05-12T12:49:37.000Z,102376.34
2023-05-12T12:50:38.791Z,102370.98
2023-05-12T12:51:46.185Z,102363.17
2023-05-12T12:52:48.567Z,102360.60
2023-05-12T12:53:49.972Z,102359.11
2023-05-12T12:54:51.633Z,102354.48
2023-05-12T12:55:53.142Z,102354.67
2023-05-12T12:56:55.217Z,102360.02
2023-05-12T12:57:57.249Z,102350.52
2023-05-12T12:58:58.579Z,102354.91
2023-05-12T13:00:00.889Z,102350.54
2023-05-12T13:01:02.442Z,102349.95
2023-05-12T13:02:04.199Z,102352.05
2023-05-12T13:03:07.432Z,102352.54
2023-05-12T13:04:08.876Z,102354.44
2023-05-12T13:05:10.348Z,102352.61
2023-05-12T13:06:11.932Z,102355.52
2023-05-12T13:07:13.452Z,102356.73
2023-05-12T13:08:16.656Z,102357.51
2023-05-12T13:09:19.974Z,102358.36
2023-05-12T13:10:21.716Z,102353.91
2023-05-12T13:11:23.130Z,102352.15
2023-05-12T13:12:25.304Z,102353.98
2023-05-12T13:13:26.740Z,102353.01
2023-05-12T13:14:28.126Z,102353.46
2023-05-12T13:15:31.678Z,102346.77
2023-05-12T13:16:33.351Z,102345.29
2023-05-12T13:17:35.332Z,102343.18
2023-05-12T13:18:36.884Z,102346.95
2023-05-12T13:19:38.422Z,102337.59
2023-05-12T13:20:40.143Z,102346.10
2023-05-12T13:21:41.856Z,102347.87
2023-05-12T13:22:44.065Z,102354.80
2023-05-12T13:23:45.610Z,102347.29
2023-05-12T13:24:47.134Z,102341.13
2023-05-12T13:25:49.030Z,102345.24
2023-05-12T13:26:51.029Z,102347.92
2023-05-12T13:27:52.482Z,102348.45
2023-05-12T13:28:53.877Z,102348.66
2023-05-12T13:29:55.231Z,102340.73
2023-05-12T13:30:56.647Z,102348.15
2023-05-12T13:31:58.008Z,102344.98
2023-05-12T13:32:59.900Z,102343.73